Time;durP1;ratioP1;P1;durP2;ratioP2;P2;SDS_P1;SDS_P2;PMS_P1;PMS_P2;Temp;Humidity;BMP_temperature;BMP_pressure;BME280_temperature;BME280_humidity;BME280_pressure;Samples;Min_cycle;Max_cycle;Signal;HPM_P1;HPM_P2
2022/07/18 00:02:11;;;;;;;0.90;0.40;;;;;;;24.12;38.69;102213.31;1733464;81;21006;-49
2022/07/18 00:04:38;;;;;;;0.40;0.40;;;;;;;24.10;38.90;102215.20;1733883;82;21015;-50
2022/07/18 00:07:05;;;;;;;0.80;0.60;;;;;;;24.07;38.74;102207.38;1734541;80;20987;-50
2022/07/18 00:09:32;;;;;;;0.40;0.40;;;;;;;24.06;38.77;102220.30;1734443;81;21046;-47
2022/07/18 00:11:59;;;;;;;1.45;0.50;;;;;;;23.99;38.67;102220.20;1703989;84;21022;-48
2022/07/18 00:14:26;;;;;;;0.93;0.45;;;;;;;24.00;38.80;102217.95;1697270;84;21565;-51
2022/07/18 00:16:53;;;;;;;0.50;0.50;;;;;;;23.97;39.66;102207.47;1697983;83;21493;-48
2022/07/18 00:19:20;;;;;;;1.05;0.60;;;;;;;23.96;39.41;102213.74;1695557;84;21007;-48
2022/07/18 00:21:46;;;;;;;5.90;1.05;;;;;;;23.94;38.89;102215.63;1700573;84;21047;-49
2022/07/18 00:24:13;;;;;;;0.45;0.45;;;;;;;23.93;39.70;102215.22;1699551;84;21506;-48
2022/07/18 00:26:40;;;;;;;2.50;0.57;;;;;;;23.93;39.54;102213.02;1698180;83;21037;-48
2022/07/18 00:29:06;;;;;;;1.07;0.60;;;;;;;23.91;39.15;102221.09;1734825;81;21027;-50
2022/07/18 00:31:35;;;;;;;0.70;0.60;;;;;;;23.90;39.00;102222.05;1734186;82;21070;-50
2022/07/18 00:34:02;;;;;;;0.80;0.57;;;;;;;23.87;38.88;102215.55;1700821;84;21503;-47
2022/07/18 00:36:29;;;;;;;3.92;0.50;;;;;;;23.85;39.14;102213.45;1699689;84;20998;-50
2022/07/18 00:38:56;;;;;;;1.17;0.65;;;;;;;23.85;39.19;102216.11;1688079;84;21018;-48
2022/07/18 00:41:23;;;;;;;1.12;0.60;;;;;;;23.83;39.20;102216.66;1732167;81;21042;-48
2022/07/18 00:43:49;;;;;;;0.93;0.55;;;;;;;23.82;38.48;102213.60;1699671;84;21030;-48
2022/07/18 00:46:22;;;;;;;0.75;0.50;;;;;;;23.78;38.68;102212.05;1704029;83;21038;-51
2022/07/18 00:48:49;;;;;;;1.15;0.57;;;;;;;23.76;38.97;102227.22;1702412;84;21031;-48
2022/07/18 00:51:16;;;;;;;1.62;0.75;;;;;;;23.73;38.57;102220.77;1682168;84;21516;-49
2022/07/18 00:53:44;;;;;;;0.80;0.47;;;;;;;23.70;38.98;102220.91;1709662;84;21051;-52
2022/07/18 00:56:11;;;;;;;1.47;0.68;;;;;;;23.69;39.10;102213.89;1709792;84;21057;-50
2022/07/18 00:58:38;;;;;;;0.90;0.60;;;;;;;23.66;39.12;102218.02;1682098;85;21514;-50
2022/07/18 01:03:51;;;;;;;2.33;0.90;;;;;;;23.62;40.02;102212.98;1697591;83;21487;-48
2022/07/18 01:06:18;;;;;;;1.27;0.93;;;;;;;23.59;40.22;102211.34;1697530;83;21551;-48
2022/07/18 01:08:46;;;;;;;0.65;0.62;;;;;;;23.57;40.62;102213.22;1699235;83;21079;-49
2022/07/18 01:11:13;;;;;;;0.95;0.60;;;;;;;23.56;40.42;102206.17;1684182;83;21558;-48
2022/07/18 01:13:40;;;;;;;1.02;0.50;;;;;;;23.54;40.07;102204.53;1712431;84;21079;-48
2022/07/18 01:16:07;;;;;;;0.68;0.50;;;;;;;23.52;40.40;102205.95;1683272;85;21091;-50
2022/07/18 01:18:34;;;;;;;2.10;0.60;;;;;;;23.51;40.27;102200.26;1711290;84;21053;-51
2022/07/18 01:21:01;;;;;;;0.80;0.75;;;;;;;23.51;40.67;102198.06;1681724;85;21566;-49
2022/07/18 01:23:28;;;;;;;0.90;0.90;;;;;;;23.50;40.27;102198.52;1637012;86;21098;-47
2022/07/18 01:25:54;;;;;;;1.25;0.80;;;;;;;23.51;40.81;102200.26;1709346;84;21038;-48
2022/07/18 01:28:21;;;;;;;4.90;0.55;;;;;;;23.52;40.86;102204.61;1709554;84;21579;-48
2022/07/18 01:30:48;;;;;;;1.60;0.62;;;;;;;23.52;40.44;102207.27;1709639;84;21086;-50
2022/07/18 01:33:15;;;;;;;0.40;0.40;;;;;;;23.51;40.08;102210.02;1709849;84;21507;-48
2022/07/18 01:35:42;;;;;;;1.15;0.40;;;;;;;23.47;39.50;102209.33;1709460;84;21046;-48
2022/07/18 01:38:09;;;;;;;0.90;0.40;;;;;;;23.41;40.14;102205.17;1709801;82;20999;-50
2022/07/18 01:40:36;;;;;;;2.02;0.50;;;;;;;23.38;40.14;102211.12;1696990;84;21039;-49
2022/07/18 01:43:02;;;;;;;0.68;0.50;;;;;;;23.33;40.53;102210.48;1682147;85;21087;-48
2022/07/18 01:45:29;;;;;;;1.00;0.53;;;;;;;23.21;41.01;102218.60;1702838;83;20995;-50
2022/07/18 01:47:56;;;;;;;2.62;0.55;;;;;;;23.21;41.01;102218.60;1700347;83;21037;-48
2022/07/18 01:50:23;;;;;;;0.57;0.50;;;;;;;23.19;41.45;102216.95;1734316;81;20999;-53
2022/07/18 01:52:49;;;;;;;1.42;0.50;;;;;;;23.16;41.37;102219.78;1732910;81;21047;-48
2022/07/18 01:55:17;;;;;;;0.75;0.37;;;;;;;23.13;41.50;102222.12;1732495;81;21058;-49
2022/07/18 01:57:44;;;;;;;1.20;0.50;;;;;;;23.12;41.36;102216.89;1699404;84;21010;-48
2022/07/18 02:00:12;;;;;;;2.65;0.62;;;;;;;23.08;41.24;102221.97;1734588;82;21051;-48
2022/07/18 02:02:40;;;;;;;1.10;0.50;;;;;;;23.02;41.25;102217.80;1731712;81;21054;-49
2022/07/18 02:05:08;;;;;;;1.95;0.53;;;;;;;22.97;41.49;102221.64;1731887;81;21055;-49
2022/07/18 02:07:39;;;;;;;0.57;0.45;;;;;;;22.94;41.44;102217.80;1731816;81;20994;-49
2022/07/18 02:10:13;;;;;;;2.87;0.62;;;;;;;22.88;41.63;102221.62;1731911;81;21068;-50
2022/07/18 02:12:39;;;;;;;0.68;0.60;;;;;;;22.83;41.53;102216.16;1680914;84;21544;-50
2022/07/18 02:15:08;;;;;;;1.57;0.62;;;;;;;22.79;41.44;102223.42;1681482;85;21116;-51
2022/07/18 02:17:35;;;;;;;2.60;0.50;;;;;;;22.78;42.19;102227.45;1691205;84;21012;-49
2022/07/18 02:20:04;;;;;;;1.72;0.70;;;;;;;22.77;42.06;102223.10;1662255;85;21099;-47
2022/07/18 02:22:31;;;;;;;1.42;0.50;;;;;;;22.74;42.02;102222.78;1659988;85;21044;-48
2022/07/18 02:24:58;;;;;;;0.80;0.50;;;;;;;22.73;41.78;102226.84;1663219;85;21571;-48
2022/07/18 02:27:25;;;;;;;0.85;0.50;;;;;;;22.72;41.84;102229.09;1663218;85;21117;-50
2022/07/18 02:29:52;;;;;;;1.07;0.60;;;;;;;22.71;42.29;102235.34;1665638;85;21075;-47
2022/07/18 02:32:22;;;;;;;1.67;0.60;;;;;;;22.70;42.21;102236.27;1666448;85;21074;-49
2022/07/18 02:34:49;;;;;;;0.93;0.65;;;;;;;22.65;42.00;102234.70;1665771;85;21674;-50
2022/07/18 02:37:16;;;;;;;2.98;0.75;;;;;;;22.67;42.42;102246.55;1663445;85;21579;-49
2022/07/18 02:39:43;;;;;;;1.40;0.60;;;;;;;22.67;42.17;102247.05;1665526;85;21158;-48
2022/07/18 02:42:10;;;;;;;0.80;0.60;;;;;;;22.67;41.67;102248.38;1670588;85;21059;-48
2022/07/18 02:44:36;;;;;;;0.98;0.60;;;;;;;22.65;41.46;102257.25;1663199;85;21532;-49
2022/07/18 02:47:04;;;;;;;1.87;0.60;;;;;;;22.63;41.49;102257.79;1665390;85;21592;-51
2022/07/18 02:49:31;;;;;;;1.40;0.80;;;;;;;22.61;41.73;102255.67;1661926;85;21102;-48
2022/07/18 02:52:01;;;;;;;1.32;0.70;;;;;;;22.61;42.12;102255.67;1669575;85;21012;-49
2022/07/18 02:54:29;;;;;;;0.82;0.60;;;;;;;22.62;42.24;102264.05;1663181;85;21054;-49
2022/07/18 02:56:56;;;;;;;1.00;0.70;;;;;;;22.62;42.29;102261.39;1663511;85;21047;-50
2022/07/18 02:59:22;;;;;;;0.82;0.53;;;;;;;22.58;41.98;102264.27;1663504;85;21591;-47
2022/07/18 03:01:49;;;;;;;0.78;0.55;;;;;;;22.55;42.36;102258.59;1664059;85;21554;-48
2022/07/18 03:04:17;;;;;;;3.92;0.80;;;;;;;22.53;42.81;102261.79;1665976;85;21036;-49
2022/07/18 03:06:45;;;;;;;1.82;0.70;;;;;;;22.54;43.05;102262.66;1666050;85;21570;-48
2022/07/18 03:09:12;;;;;;;1.50;0.70;;;;;;;22.53;43.32;102272.86;1678850;82;21053;-47
2022/07/18 03:11:39;;;;;;;1.22;0.65;;;;;;;22.51;43.33;102263.66;1701030;82;21018;-49
2022/07/18 03:14:05;;;;;;;1.60;0.75;;;;;;;22.51;43.14;102262.78;1701407;84;21009;-47
2022/07/18 03:16:32;;;;;;;1.02;0.70;;;;;;;22.47;43.20;102256.78;1702315;82;21633;-54
2022/07/18 03:19:00;;;;;;;1.92;0.80;;;;;;;22.45;43.07;102267.06;1717499;82;21074;-49
2022/07/18 03:21:26;;;;;;;1.62;0.60;;;;;;;22.43;42.89;102260.51;1697945;84;21002;-48
2022/07/18 03:23:53;;;;;;;0.82;0.70;;;;;;;22.41;43.07;102261.05;1688830;84;21061;-51
2022/07/18 03:26:20;;;;;;;4.50;0.80;;;;;;;22.39;43.38;102258.94;1701000;84;21554;-48
2022/07/18 03:28:47;;;;;;;0.95;0.90;;;;;;;22.39;43.71;102268.22;1700304;84;21007;-48
2022/07/18 03:31:14;;;;;;;0.95;0.60;;;;;;;22.40;43.83;102265.94;1698137;84;21022;-48
2022/07/18 03:33:41;;;;;;;0.90;0.60;;;;;;;22.40;43.87;102265.11;1697827;84;21011;-50
2022/07/18 03:36:08;;;;;;;2.17;0.60;;;;;;;22.38;43.68;102263.83;1698142;84;21037;-49
2022/07/18 03:38:36;;;;;;;2.77;1.10;;;;;;;22.40;43.78;102263.78;1697651;84;21037;-49
2022/07/18 03:41:05;;;;;;;1.40;0.80;;;;;;;22.43;43.44;102265.81;1694358;84;21062;-49
2022/07/18 03:43:32;;;;;;;1.30;0.65;;;;;;;22.47;43.55;102266.06;1701059;84;21006;-47
2022/07/18 03:45:59;;;;;;;1.82;0.80;;;;;;;22.56;43.53;102266.96;1694288;84;21025;-51
2022/07/18 03:48:26;;;;;;;3.40;0.70;;;;;;;22.74;43.48;102269.22;1697774;84;21067;-48
2022/07/18 03:50:52;;;;;;;1.35;0.75;;;;;;;23.04;43.27;102265.55;1697385;84;21466;-48
2022/07/18 03:53:19;;;;;;;1.30;0.70;;;;;;;23.44;42.61;102270.58;1701002;84;21021;-50
2022/07/18 03:55:46;;;;;;;0.93;0.53;;;;;;;23.93;42.08;102266.20;1732590;81;21037;-49
2022/07/18 03:58:13;;;;;;;2.83;1.10;;;;;;;24.49;41.50;102273.78;1733623;81;21035;-47
2022/07/18 04:00:40;;;;;;;1.15;0.80;;;;;;;25.12;40.35;102272.83;1701110;84;21518;-50
2022/07/18 04:03:06;;;;;;;2.15;0.80;;;;;;;25.73;39.03;102277.57;1701026;84;21054;-49
2022/07/18 04:05:35;;;;;;;0.95;0.68;;;;;;;26.07;38.13;102276.83;1700562;84;21014;-51
2022/07/18 04:08:01;;;;;;;2.60;0.60;;;;;;;26.13;37.75;102275.14;1698344;84;21491;-47
2022/07/18 04:10:28;;;;;;;1.00;0.65;;;;;;;26.12;37.74;102277.41;1697889;84;21031;-48
2022/07/18 04:12:56;;;;;;;1.72;0.70;;;;;;;26.00;37.64;102272.81;1697626;84;21046;-50
2022/07/18 04:15:24;;;;;;;0.72;0.72;;;;;;;25.83;37.85;102282.72;1695538;84;21066;-48
2022/07/18 04:17:51;;;;;;;1.07;0.60;;;;;;;25.56;38.17;102273.73;1701022;84;21498;-48
2022/07/18 04:20:19;;;;;;;1.57;0.88;;;;;;;25.23;38.62;102274.37;1696513;84;21038;-51
2022/07/18 04:22:56;;;;;;;2.10;0.57;;;;;;;24.97;39.45;102283.03;1730726;81;21503;-50
2022/07/18 04:25:30;;;;;;;0.93;0.65;;;;;;;24.76;39.83;102282.91;1713118;82;21549;-52
2022/07/18 04:27:56;;;;;;;1.52;1.00;;;;;;;24.50;40.24;102278.17;1712517;82;21045;-53
2022/07/18 04:30:25;;;;;;;0.90;0.78;;;;;;;24.24;40.69;102272.48;1713420;82;21033;-48
2022/07/18 04:32:51;;;;;;;1.47;0.70;;;;;;;24.06;41.07;102275.28;1712913;82;21021;-50
2022/07/18 04:35:18;;;;;;;2.33;0.88;;;;;;;23.92;41.46;102280.45;1715783;82;21041;-49
2022/07/18 04:37:45;;;;;;;1.10;0.85;;;;;;;23.81;41.82;102281.02;1715801;82;21053;-49
2022/07/18 04:40:12;;;;;;;1.05;0.93;;;;;;;23.73;41.97;102281.89;1711696;83;21033;-48
2022/07/18 04:42:40;;;;;;;4.00;1.07;;;;;;;23.59;42.09;102287.53;1698776;81;21538;-49
2022/07/18 04:45:08;;;;;;;0.85;0.78;;;;;;;23.47;42.51;102289.03;1693122;82;21027;-50
2022/07/18 04:47:35;;;;;;;1.12;0.80;;;;;;;23.37;42.57;102290.41;1694367;84;21487;-49
2022/07/18 04:50:02;;;;;;;3.77;0.80;;;;;;;23.27;42.71;102293.11;1689878;82;21019;-47
2022/07/18 04:52:42;;;;;;;2.90;0.90;;;;;;;23.22;43.07;102305.78;1694873;82;21074;-47
2022/07/18 04:55:10;;;;;;;1.35;0.90;;;;;;;23.14;43.18;102306.63;1694426;82;20995;-51
2022/07/18 04:57:37;;;;;;;1.07;0.78;;;;;;;23.08;43.61;102302.45;1696264;82;21002;-48
2022/07/18 05:00:07;;;;;;;1.45;0.80;;;;;;;23.07;43.34;102310.51;1698429;82;21070;-53
2022/07/18 05:02:34;;;;;;;0.88;0.78;;;;;;;23.03;43.38;102306.28;1698300;82;21014;-48
2022/07/18 05:05:01;;;;;;;1.85;1.00;;;;;;;23.00;43.96;102304.64;1696572;82;21054;-49
2022/07/18 05:07:28;;;;;;;0.98;0.90;;;;;;;22.98;44.00;102307.00;1696335;82;21027;-49
2022/07/18 05:09:55;;;;;;;3.58;0.90;;;;;;;22.99;44.42;102310.03;1697376;84;21077;-49
2022/07/18 05:12:23;;;;;;;1.00;0.72;;;;;;;22.99;44.04;102315.34;1698202;82;21046;-47
2022/07/18 05:14:50;;;;;;;1.00;0.72;;;;;;;23.00;44.11;102309.95;1698157;82;21510;-51
2022/07/18 05:17:17;;;;;;;0.93;0.90;;;;;;;23.10;44.18;102312.54;1696457;82;21129;-48
2022/07/18 05:19:44;;;;;;;0.78;0.75;;;;;;;23.31;44.06;102314.59;1701961;82;21529;-48
2022/07/18 05:22:11;;;;;;;1.15;0.90;;;;;;;23.51;43.77;102311.85;1720278;82;21516;-50
2022/07/18 05:24:38;;;;;;;0.82;0.70;;;;;;;23.79;43.26;102314.80;1731886;81;21043;-50
2022/07/18 05:27:06;;;;;;;1.35;0.80;;;;;;;24.06;42.75;102309.85;1731570;81;21039;-50
2022/07/18 05:29:33;;;;;;;0.80;0.60;;;;;;;24.34;42.22;102315.89;1730520;81;20991;-52
2022/07/18 05:32:01;;;;;;;2.05;0.80;;;;;;;24.55;41.70;102318.68;1733250;81;21035;-50
2022/07/18 05:34:28;;;;;;;2.30;0.60;;;;;;;24.67;41.57;102320.66;1657271;83;21486;-48
2022/07/18 05:36:54;;;;;;;0.80;0.62;;;;;;;24.74;40.90;102317.63;1700770;84;20994;-50
2022/07/18 05:39:21;;;;;;;0.60;0.60;;;;;;;24.74;40.90;102317.63;1734577;81;21015;-50
2022/07/18 05:41:48;;;;;;;1.40;0.60;;;;;;;24.74;40.76;102311.43;1731582;81;21024;-53
2022/07/18 05:44:14;;;;;;;2.15;0.80;;;;;;;24.72;40.75;102315.95;1720996;81;21058;-48
2022/07/18 05:46:41;;;;;;;1.02;0.60;;;;;;;24.71;40.72;102315.58;1734766;81;21070;-49
2022/07/18 05:49:08;;;;;;;2.25;0.70;;;;;;;24.75;40.86;102321.15;1699704;84;21030;-48
2022/07/18 05:51:35;;;;;;;3.40;0.72;;;;;;;24.82;40.50;102324.70;1697446;84;21014;-48
2022/07/18 05:54:02;;;;;;;1.10;0.60;;;;;;;24.82;40.50;102324.70;1697603;84;21006;-48
2022/07/18 05:56:29;;;;;;;1.65;0.70;;;;;;;24.86;41.03;102316.06;1697606;84;21526;-52
2022/07/18 05:58:56;;;;;;;0.70;0.70;;;;;;;24.85;39.88;102315.69;1697409;84;21498;-49
2022/07/18 06:01:22;;;;;;;1.07;0.60;;;;;;;24.83;40.37;102312.25;1699059;82;21046;-48
2022/07/18 06:03:50;;;;;;;0.98;0.60;;;;;;;24.83;40.37;102312.25;1734668;81;21019;-49
2022/07/18 06:06:18;;;;;;;2.10;0.53;;;;;;;24.88;40.31;102316.83;1734282;81;21523;-52
2022/07/18 06:08:45;;;;;;;1.60;0.90;;;;;;;24.93;40.26;102314.78;1704744;84;22337;-51
2022/07/18 06:11:12;;;;;;;0.88;0.62;;;;;;;25.06;40.20;102315.77;1698654;84;21054;-48
2022/07/18 06:13:41;;;;;;;1.22;0.65;;;;;;;25.20;40.13;102302.54;1699639;84;21073;-48
2022/07/18 06:16:10;;;;;;;1.95;0.60;;;;;;;25.41;39.70;102305.78;1695896;84;21026;-50
2022/07/18 06:18:37;;;;;;;1.42;0.55;;;;;;;25.52;39.42;102304.19;1730755;81;21544;-50
2022/07/18 06:21:05;;;;;;;0.50;0.50;;;;;;;25.68;39.20;102304.97;1730937;81;20988;-54
2022/07/18 06:23:32;;;;;;;3.50;0.60;;;;;;;25.81;38.70;102303.29;1731731;81;21039;-49
2022/07/18 06:25:59;;;;;;;3.12;0.70;;;;;;;25.94;38.48;102306.53;1734190;81;21008;-49
2022/07/18 06:28:26;;;;;;;0.82;0.68;;;;;;;26.08;38.10;102307.91;1700475;84;21018;-49
2022/07/18 06:30:52;;;;;;;1.12;0.72;;;;;;;26.21;38.07;102303.53;1730306;82;21074;-47
2022/07/18 06:33:20;;;;;;;2.87;0.60;;;;;;;26.34;37.77;102293.31;1700436;84;21066;-49
2022/07/18 06:35:48;;;;;;;1.27;0.68;;;;;;;26.40;37.21;102291.58;1700265;84;21024;-51
2022/07/18 06:38:15;;;;;;;2.70;0.70;;;;;;;26.42;37.18;102302.19;1697579;83;21022;-51
2022/07/18 06:40:43;;;;;;;1.15;0.60;;;;;;;26.40;37.04;102294.72;1697569;83;21027;-48
2022/07/18 06:43:13;;;;;;;0.72;0.60;;;;;;;26.32;37.12;102291.69;1697575;84;21010;-48
2022/07/18 06:45:40;;;;;;;4.70;0.80;;;;;;;26.22;37.31;102298.55;1731097;81;21031;-49
2022/07/18 06:48:07;;;;;;;0.90;0.60;;;;;;;26.15;37.23;102293.24;1732670;81;20995;-52
2022/07/18 06:50:33;;;;;;;1.12;0.60;;;;;;;26.09;37.53;102290.96;1734547;81;21055;-53
2022/07/18 06:53:01;;;;;;;0.60;0.57;;;;;;;26.05;37.35;102289.41;1734773;81;21082;-50
2022/07/18 06:55:28;;;;;;;1.00;0.60;;;;;;;25.96;37.25;102281.95;1732912;81;21031;-51
2022/07/18 06:57:55;;;;;;;1.37;0.68;;;;;;;25.88;37.83;102286.91;1698530;83;21038;-51
2022/07/18 07:00:22;;;;;;;0.50;0.50;;;;;;;25.80;37.93;102282.89;1699801;84;21003;-49
2022/07/18 07:02:49;;;;;;;1.17;0.50;;;;;;;25.74;38.31;102280.60;1734936;81;21046;-48
2022/07/18 07:05:17;;;;;;;1.17;0.50;;;;;;;25.72;38.26;102277.64;1734313;81;21008;-49
2022/07/18 07:07:46;;;;;;;0.50;0.50;;;;;;;25.68;38.07;102270.31;1698950;84;21052;-49
2022/07/18 07:10:13;;;;;;;2.30;0.62;;;;;;;25.68;37.83;102272.98;1697941;84;21058;-51
2022/07/18 07:12:46;;;;;;;2.83;0.45;;;;;;;25.67;37.86;102271.28;1697730;84;21034;-49
2022/07/18 07:15:13;;;;;;;0.88;0.55;;;;;;;25.68;37.69;102272.11;1689094;84;21531;-51
2022/07/18 07:17:40;;;;;;;2.60;0.50;;;;;;;25.65;37.85;102266.52;1733956;82;21534;-50
2022/07/18 07:20:09;;;;;;;0.55;0.40;;;;;;;25.65;37.62;102259.86;1732454;81;21026;-48
2022/07/18 07:22:45;;;;;;;0.57;0.37;;;;;;;25.68;37.77;102258.31;1732009;81;21023;-49
2022/07/18 07:25:11;;;;;;;0.70;0.50;;;;;;;25.72;37.70;102255.84;1686303;84;21066;-48
2022/07/18 07:27:39;;;;;;;0.60;0.50;;;;;;;25.78;37.40;102255.97;1731349;82;21046;-49
2022/07/18 07:30:07;;;;;;;2.50;0.55;;;;;;;25.82;37.62;102250.83;1733742;81;21027;-50
2022/07/18 07:32:37;;;;;;;0.93;0.60;;;;;;;25.87;37.39;102245.17;1733705;81;21085;-49
2022/07/18 07:35:06;;;;;;;0.62;0.50;;;;;;;25.93;37.29;102247.46;1731416;81;21043;-48
2022/07/18 07:37:34;;;;;;;0.40;0.40;;;;;;;25.98;37.10;102245.38;1731692;81;21508;-53
2022/07/18 07:40:01;;;;;;;0.95;0.50;;;;;;;26.00;36.53;102249.67;1732647;82;21544;-50
2022/07/18 07:42:27;;;;;;;0.68;0.50;;;;;;;26.03;36.88;102248.62;1733611;81;21015;-48
2022/07/18 07:44:54;;;;;;;0.75;0.35;;;;;;;26.06;36.54;102237.75;1720572;81;21030;-49
2022/07/18 07:47:21;;;;;;;0.95;0.40;;;;;;;26.11;36.64;102241.03;1738278;82;21070;-52
2022/07/18 07:49:48;;;;;;;0.37;0.37;;;;;;;26.15;36.92;102237.22;1729570;82;21483;-50
2022/07/18 07:52:16;;;;;;;0.80;0.50;;;;;;;26.19;36.74;102240.06;1735271;81;21038;-49
2022/07/18 07:54:47;;;;;;;0.42;0.30;;;;;;;26.21;36.32;102243.49;1733508;81;21030;-48
2022/07/18 07:57:14;;;;;;;1.10;0.53;;;;;;;26.23;36.36;102237.58;1731802;81;20999;-51
2022/07/18 07:59:41;;;;;;;1.25;0.30;;;;;;;26.23;37.03;102237.58;1730571;81;21487;-50
2022/07/18 08:02:08;;;;;;;0.70;0.47;;;;;;;26.22;36.43;102240.72;1730644;81;21518;-50
2022/07/18 08:04:35;;;;;;;0.72;0.50;;;;;;;26.22;36.24;102238.52;1730255;81;21031;-51
2022/07/18 08:07:02;;;;;;;0.85;0.40;;;;;;;26.21;36.27;102241.69;1730189;81;21527;-50
2022/07/18 08:09:29;;;;;;;0.40;0.40;;;;;;;26.22;35.94;102244.72;1733386;81;21034;-50
2022/07/18 08:11:56;;;;;;;0.50;0.42;;;;;;;26.25;36.02;102241.01;1733402;81;21574;-50
2022/07/18 08:14:23;;;;;;;1.20;0.50;;;;;;;26.29;36.17;102246.53;1730430;81;21034;-53
2022/07/18 08:16:50;;;;;;;1.25;0.40;;;;;;;26.31;36.39;102236.61;1732218;81;21058;-50
2022/07/18 08:19:17;;;;;;;0.50;0.50;;;;;;;26.36;35.76;102249.16;1733154;82;21056;-48
2022/07/18 08:21:44;;;;;;;1.95;0.50;;;;;;;26.41;36.22;102249.73;1731425;81;21105;-48
2022/07/18 08:24:10;;;;;;;2.90;0.37;;;;;;;26.46;35.97;102252.98;1733652;81;21046;-49
2022/07/18 08:26:39;;;;;;;0.90;0.40;;;;;;;26.51;35.43;102256.20;1697291;84;21018;-49
2022/07/18 08:29:07;;;;;;;1.15;0.50;;;;;;;26.57;35.27;102257.13;1697761;84;21499;-50
2022/07/18 08:31:33;;;;;;;2.83;0.53;;;;;;;26.63;35.36;102254.56;1697601;82;21069;-49
2022/07/18 08:34:01;;;;;;;0.62;0.40;;;;;;;26.67;35.00;102252.90;1698302;83;21042;-49
2022/07/18 08:36:28;;;;;;;1.07;0.60;;;;;;;26.72;35.30;102252.64;1731422;81;21073;-48
2022/07/18 08:38:55;;;;;;;0.93;0.40;;;;;;;26.80;35.03;102259.20;1721985;81;21000;-50
2022/07/18 08:41:25;;;;;;;1.05;0.70;;;;;;;26.85;34.72;102255.76;1731534;81;21027;-53
2022/07/18 08:43:53;;;;;;;1.40;0.50;;;;;;;26.90;34.32;102256.29;1674191;83;21006;-48
2022/07/18 08:46:21;;;;;;;0.82;0.65;;;;;;;26.96;34.50;102246.53;1703841;84;21019;-51
2022/07/18 08:48:51;;;;;;;2.55;0.80;;;;;;;27.01;34.25;102253.77;1730881;81;20984;-48
2022/07/18 08:51:19;;;;;;;1.85;0.82;;;;;;;27.04;33.82;102248.68;1723984;81;21039;-48
2022/07/18 08:53:47;;;;;;;0.90;0.60;;;;;;;27.08;33.83;102254.23;1732758;81;21027;-48
2022/07/18 08:56:13;;;;;;;1.25;0.75;;;;;;;27.14;33.74;102247.96;1733692;82;21030;-49
2022/07/18 08:58:40;;;;;;;0.70;0.70;;;;;;;27.23;34.26;102246.02;1734757;81;21011;-50
2022/07/18 09:01:07;;;;;;;0.40;0.40;;;;;;;27.30;33.86;102250.00;1724985;81;21502;-49
2022/07/18 09:03:34;;;;;;;2.67;0.70;;;;;;;27.35;34.20;102253.70;1731487;81;21507;-48
2022/07/18 09:06:11;;;;;;;1.98;0.70;;;;;;;27.36;33.42;102254.95;1699199;84;21053;-49
2022/07/18 09:08:39;;;;;;;3.10;0.60;;;;;;;27.38;33.41;102251.70;1721983;81;21055;-53
2022/07/18 09:11:11;;;;;;;0.50;0.50;;;;;;;27.42;33.64;102252.80;1734486;81;20979;-49
2022/07/18 09:13:42;;;;;;;2.70;0.60;;;;;;;27.44;33.46;102252.22;1753957;80;21026;-50
2022/07/18 09:16:11;;;;;;;0.70;0.70;;;;;;;27.47;33.36;102246.67;1708038;83;21023;-49
2022/07/18 09:18:47;;;;;;;2.10;0.80;;;;;;;27.52;33.25;102248.53;1731290;81;21076;-48
2022/07/18 09:21:19;;;;;;;0.60;0.60;;;;;;;27.58;33.29;102250.78;1699182;84;20998;-52
2022/07/18 09:23:50;;;;;;;1.67;0.80;;;;;;;27.62;33.28;102231.75;1731405;80;21027;-50
2022/07/18 09:26:42;;;;;;;1.20;0.60;;;;;;;27.69;32.93;102244.22;1728697;81;21496;-49
2022/07/18 09:29:14;;;;;;;0.42;0.40;;;;;;;27.73;33.42;102236.35;1739264;81;21090;-49
2022/07/18 09:31:49;;;;;;;0.93;0.78;;;;;;;27.77;32.95;102232.50;1701338;84;20983;-50
2022/07/18 09:34:33;;;;;;;1.17;0.60;;;;;;;27.81;33.28;102231.31;1740426;81;21050;-49
2022/07/18 09:37:00;;;;;;;1.20;0.80;;;;;;;27.81;33.21;102232.65;1713262;81;21068;-50
2022/07/18 09:39:27;;;;;;;1.05;0.70;;;;;;;27.82;32.72;102227.69;1747492;81;23067;-51
2022/07/18 09:41:54;;;;;;;0.95;0.70;;;;;;;27.80;32.48;102219.75;1678615;84;21032;-50
2022/07/18 09:44:21;;;;;;;0.65;0.65;;;;;;;27.81;32.67;102214.79;1680267;85;21051;-51
2022/07/18 09:47:04;;;;;;;1.40;0.68;;;;;;;27.83;33.11;102213.34;1700455;84;21597;-52
2022/07/18 09:49:32;;;;;;;0.80;0.53;;;;;;;27.85;33.06;102212.74;1675546;84;21042;-51
2022/07/18 09:52:08;;;;;;;0.78;0.50;;;;;;;27.89;32.22;102218.25;1703062;84;21536;-49
2022/07/18 09:54:40;;;;;;;2.35;0.65;;;;;;;27.89;32.58;102221.78;1619930;87;21086;-50
2022/07/18 09:57:07;;;;;;;1.07;0.98;;;;;;;27.95;32.12;102217.80;1587049;89;21077;-50
2022/07/18 09:59:36;;;;;;;0.50;0.50;;;;;;;27.99;31.99;102216.66;1567248;90;21105;-49
2022/07/18 10:02:04;;;;;;;1.25;1.07;;;;;;;28.01;31.89;102216.06;1585545;88;21065;-50
2022/07/18 10:04:32;;;;;;;0.78;0.60;;;;;;;28.04;32.28;102213.18;1585771;89;21647;-50
2022/07/18 10:06:59;;;;;;;0.60;0.55;;;;;;;28.06;32.36;102216.60;1578787;89;21101;-52
2022/07/18 10:09:27;;;;;;;1.37;0.72;;;;;;;28.10;31.92;102209.59;1573516;89;21546;-48
2022/07/18 10:11:54;;;;;;;1.45;0.80;;;;;;;28.15;32.18;102202.56;1575607;89;21608;-52
2022/07/18 10:14:21;;;;;;;2.15;0.75;;;;;;;28.20;31.60;102205.75;1568950;89;21059;-50
2022/07/18 10:16:48;;;;;;;1.72;1.00;;;;;;;28.25;31.10;102207.62;1581382;89;21130;-49
2022/07/18 10:19:15;;;;;;;3.50;1.10;;;;;;;28.28;31.23;102203.36;1571990;89;21058;-50
2022/07/18 10:21:46;;;;;;;1.67;0.60;;;;;;;28.30;31.31;102205.45;1582440;89;21685;-49
2022/07/18 10:24:12;;;;;;;1.37;0.80;;;;;;;28.33;31.09;102204.38;1585429;89;21073;-49
2022/07/18 10:26:39;;;;;;;1.05;0.80;;;;;;;28.39;30.82;102195.41;1580073;88;21092;-51
2022/07/18 10:29:09;;;;;;;2.22;0.85;;;;;;;28.44;30.99;102197.25;1585482;88;21086;-50
2022/07/18 10:31:41;;;;;;;1.02;0.75;;;;;;;28.46;31.32;102195.31;1582289;89;21089;-51
2022/07/18 10:34:11;;;;;;;1.55;1.10;;;;;;;28.49;31.14;102186.20;1583137;89;21081;-55
2022/07/18 10:36:56;;;;;;;0.75;0.70;;;;;;;28.53;31.46;102190.36;1596230;89;21066;-49
2022/07/18 10:39:35;;;;;;;1.10;0.88;;;;;;;28.55;31.02;102179.91;1578522;89;21092;-52
2022/07/18 10:42:18;;;;;;;1.52;0.80;;;;;;;28.58;30.30;102189.11;1532809;93;21142;-51
2022/07/18 10:44:45;;;;;;;1.55;0.90;;;;;;;28.61;31.08;102193.36;1538371;93;21641;-51
2022/07/18 10:47:17;;;;;;;1.30;0.68;;;;;;;28.65;31.08;102190.34;1543258;93;21159;-49
2022/07/18 10:49:58;;;;;;;2.42;0.78;;;;;;;28.73;31.63;102191.09;1542871;93;21071;-49
2022/07/18 10:52:38;;;;;;;;;;;;;;;28.81;31.16;102194.08;1601220;89;21055;-51
2022/07/18 10:55:23;;;;;;;2.17;0.90;;;;;;;28.91;30.95;102188.39;1605125;89;20394;-51
2022/07/18 10:57:55;;;;;;;1.25;0.68;;;;;;;29.01;30.65;102184.50;1605513;88;21115;-52
2022/07/18 11:00:38;;;;;;;1.00;0.80;;;;;;;29.10;30.87;102188.66;1643186;85;21033;-51
2022/07/18 11:03:10;;;;;;;2.05;0.53;;;;;;;29.18;31.07;102186.28;1685618;85;21012;-50
2022/07/18 11:05:47;;;;;;;1.95;0.80;;;;;;;29.27;31.62;102184.72;1685031;85;21076;-50
2022/07/18 11:08:20;;;;;;;1.35;0.70;;;;;;;29.31;31.65;102178.14;1681592;85;21734;-51
2022/07/18 11:11:01;;;;;;;0.70;0.60;;;;;;;29.37;30.82;102185.70;1685192;84;21024;-49
2022/07/18 11:13:40;;;;;;;1.15;0.78;;;;;;;29.40;30.85;102180.12;1679972;85;21048;-49
2022/07/18 11:16:17;;;;;;;0.60;0.60;;;;;;;29.43;30.95;102176.70;1685144;84;21024;-49
2022/07/18 11:18:51;;;;;;;3.02;0.82;;;;;;;29.50;31.82;102175.73;1694330;82;21522;-53
2022/07/18 11:21:22;;;;;;;0.93;0.70;;;;;;;29.55;32.27;102173.05;1735512;81;21027;-48
2022/07/18 11:23:51;;;;;;;;;;;;;;;29.60;32.46;102176.71;1728153;82;21497;-51
2022/07/18 11:26:25;;;;;;;1.95;1.20;;;;;;;29.62;32.62;102167.58;1692288;83;20110;-49
2022/07/18 11:29:09;;;;;;;1.77;0.70;;;;;;;29.65;32.36;102173.19;1644781;85;21047;-51
2022/07/18 11:31:52;;;;;;;1.65;0.60;;;;;;;29.66;32.60;102174.41;1645346;85;21504;-50
2022/07/18 11:34:36;;;;;;;0.57;0.50;;;;;;;29.63;32.89;102178.69;1694048;83;21039;-49
2022/07/18 11:37:03;;;;;;;1.70;0.85;;;;;;;29.58;33.21;102169.27;1693143;83;21480;-51